SAE45 MMMX-TXKF
Flight info
| Callsign | SAE45 |
|---|---|
| Flight time | N/A |
| Altitude | 33000 |
| Route | NOXOS3A NOXOS UT155 AVALI UM580 NUBEL UR522 AXOMU UM346 CANOA Y196 LULLS Y642 JITGO/N0486F350 Y642 GRATX/M082F350 M329 BALTN POPOP1 |
| Aircraft | MD11/H-SDE1E2E3FGHIJ2J3J4J5M1RWXY/LB1D1 |
Departure
| Time | N/A |
|---|---|
| Airport | Mexico City Benito Juárez International Airport (MMMX) |
Arrival
| Time | 2026-05-04 05:39 |
|---|---|
| Airport | L.F. Wade International Airport (TXKF) |
| Time | Latitude | Longitude | Altitude | Speed | Heading |
|---|---|---|---|---|---|
| 2026-05-04 01:52 | 19.61659 | -97.97247 | 21990 ft | 436 kts | 64° |
| 2026-05-04 01:52 | 19.63007 | -97.94363 | 22382 ft | 438 kts | 59° |
| 2026-05-04 01:52 | 19.64467 | -97.91514 | 22729 ft | 441 kts | 59° |
| 2026-05-04 01:53 | 19.65941 | -97.88643 | 23147 ft | 444 kts | 59° |
| 2026-05-04 01:53 | 19.67391 | -97.85744 | 23546 ft | 446 kts | 60° |
| 2026-05-04 01:53 | 19.68817 | -97.82809 | 23884 ft | 449 kts | 60° |
| 2026-05-04 01:53 | 19.70229 | -97.79843 | 24205 ft | 452 kts | 60° |
| 2026-05-04 01:54 | 19.71636 | -97.76854 | 24533 ft | 454 kts | 61° |
| 2026-05-04 01:54 | 19.73043 | -97.73845 | 24878 ft | 456 kts | 61° |
| 2026-05-04 01:54 | 19.74455 | -97.70818 | 25204 ft | 459 kts | 61° |
| 2026-05-04 01:54 | 19.75876 | -97.67772 | 25502 ft | 461 kts | 61° |
| 2026-05-04 01:55 | 19.77303 | -97.64712 | 25809 ft | 463 kts | 61° |
| 2026-05-04 01:55 | 19.78735 | -97.61640 | 26118 ft | 466 kts | 60° |
| 2026-05-04 01:55 | 19.80177 | -97.58548 | 26431 ft | 468 kts | 60° |
| 2026-05-04 01:55 | 19.81623 | -97.55444 | 26759 ft | 470 kts | 60° |
| 2026-05-04 01:56 | 19.83071 | -97.52336 | 27123 ft | 470 kts | 60° |
| 2026-05-04 01:56 | 19.84498 | -97.49268 | 27498 ft | 469 kts | 60° |
| 2026-05-04 01:56 | 19.85964 | -97.46118 | 27896 ft | 469 kts | 60° |
| 2026-05-04 01:56 | 19.87381 | -97.43070 | 28264 ft | 469 kts | 60° |
| 2026-05-04 01:57 | 19.88824 | -97.39966 | 28660 ft | 468 kts | 60° |
| 2026-05-04 01:57 | 19.90263 | -97.36863 | 29030 ft | 468 kts | 60° |
| 2026-05-04 01:57 | 19.91697 | -97.33761 | 29411 ft | 468 kts | 60° |
| 2026-05-04 01:57 | 19.93130 | -97.30658 | 29762 ft | 468 kts | 60° |
| 2026-05-04 01:58 | 19.94565 | -97.27556 | 30138 ft | 467 kts | 60° |
| 2026-05-04 01:58 | 19.95996 | -97.24461 | 30452 ft | 467 kts | 60° |
| 2026-05-04 01:58 | 19.97429 | -97.21367 | 30757 ft | 466 kts | 60° |
| 2026-05-04 01:58 | 19.98859 | -97.18274 | 31062 ft | 466 kts | 60° |
| 2026-05-04 01:59 | 20.00291 | -97.15180 | 31346 ft | 466 kts | 60° |
| 2026-05-04 01:59 | 20.01721 | -97.12087 | 31668 ft | 466 kts | 60° |
| 2026-05-04 01:59 | 20.03148 | -97.08997 | 31976 ft | 465 kts | 60° |
| 2026-05-04 01:59 | 20.04574 | -97.05910 | 32281 ft | 465 kts | 60° |
| 2026-05-04 02:00 | 20.05997 | -97.02826 | 32591 ft | 464 kts | 60° |
| 2026-05-04 02:00 | 20.07417 | -96.99746 | 32858 ft | 464 kts | 60° |
| 2026-05-04 02:00 | 20.08841 | -96.96659 | 32992 ft | 467 kts | 60° |
| 2026-05-04 02:00 | 20.10275 | -96.93549 | 33020 ft | 469 kts | 60° |
| 2026-05-04 02:01 | 20.13130 | -96.87344 | 33024 ft | 463 kts | 60° |
| 2026-05-04 02:01 | 20.15940 | -96.81229 | 33036 ft | 463 kts | 60° |
| 2026-05-04 02:02 | 20.18956 | -96.75172 | 33037 ft | 463 kts | 56° |
| 2026-05-04 02:02 | 20.22270 | -96.69313 | 33040 ft | 462 kts | 54° |
| 2026-05-04 02:03 | 20.25623 | -96.63484 | 33051 ft | 462 kts | 54° |
| 2026-05-04 02:03 | 20.28958 | -96.57637 | 33054 ft | 462 kts | 55° |
| 2026-05-04 02:04 | 20.32276 | -96.51782 | 33070 ft | 462 kts | 55° |
| 2026-05-04 02:04 | 20.35591 | -96.45920 | 33098 ft | 462 kts | 54° |
| 2026-05-04 02:05 | 20.38907 | -96.40052 | 33084 ft | 462 kts | 54° |
| 2026-05-04 02:05 | 20.42224 | -96.34177 | 33086 ft | 462 kts | 54° |
| 2026-05-04 02:06 | 20.45538 | -96.28302 | 33087 ft | 462 kts | 54° |
| 2026-05-04 02:06 | 20.48851 | -96.22423 | 33084 ft | 462 kts | 54° |
| 2026-05-04 02:07 | 20.52162 | -96.16541 | 33084 ft | 462 kts | 54° |
| 2026-05-04 02:07 | 20.55469 | -96.10659 | 33083 ft | 462 kts | 54° |
| 2026-05-04 02:08 | 20.58787 | -96.04771 | 33078 ft | 463 kts | 54° |
| 2026-05-04 02:08 | 20.62113 | -95.98876 | 33077 ft | 464 kts | 54° |
| 2026-05-04 02:09 | 20.65436 | -95.92980 | 33075 ft | 464 kts | 54° |
| 2026-05-04 02:09 | 20.68760 | -95.87078 | 33075 ft | 464 kts | 54° |
| 2026-05-04 02:10 | 20.72082 | -95.81172 | 33077 ft | 464 kts | 54° |
| 2026-05-04 02:10 | 20.75410 | -95.75251 | 33071 ft | 465 kts | 54° |
| 2026-05-04 02:11 | 20.78737 | -95.69322 | 33076 ft | 465 kts | 54° |
| 2026-05-04 02:11 | 20.82063 | -95.63391 | 33067 ft | 467 kts | 54° |
| 2026-05-04 02:12 | 20.85397 | -95.57439 | 33070 ft | 466 kts | 54° |
| 2026-05-04 02:12 | 20.88726 | -95.51487 | 33070 ft | 467 kts | 54° |
| 2026-05-04 02:13 | 20.92047 | -95.45520 | 33069 ft | 467 kts | 54° |
| 2026-05-04 02:13 | 20.95348 | -95.39543 | 33070 ft | 467 kts | 54° |
| 2026-05-04 02:14 | 20.98653 | -95.33563 | 33067 ft | 467 kts | 54° |
| 2026-05-04 02:14 | 21.01810 | -95.27487 | 33065 ft | 472 kts | 64° |
| 2026-05-04 02:15 | 21.03481 | -95.20687 | 33068 ft | 479 kts | 76° |
| 2026-05-04 02:15 | 21.04582 | -95.13640 | 33067 ft | 480 kts | 77° |
| 2026-05-04 02:16 | 21.05740 | -95.06610 | 33065 ft | 479 kts | 76° |
| 2026-05-04 02:16 | 21.07305 | -94.99698 | 33070 ft | 477 kts | 69° |
| 2026-05-04 02:17 | 21.09267 | -94.92906 | 33066 ft | 478 kts | 68° |
| 2026-05-04 02:17 | 21.11263 | -94.86113 | 33065 ft | 478 kts | 68° |
| 2026-05-04 02:18 | 21.13223 | -94.79305 | 33067 ft | 478 kts | 69° |
| 2026-05-04 02:18 | 21.15163 | -94.72489 | 33067 ft | 478 kts | 69° |
| 2026-05-04 02:19 | 21.17098 | -94.65670 | 33064 ft | 478 kts | 69° |
| 2026-05-04 02:19 | 21.19031 | -94.58851 | 33064 ft | 478 kts | 69° |
| 2026-05-04 02:20 | 21.20964 | -94.52024 | 33063 ft | 479 kts | 69° |
| 2026-05-04 02:20 | 21.22572 | -94.46338 | 33062 ft | 480 kts | 69° |
| 2026-05-04 02:21 | 21.24818 | -94.38378 | 33063 ft | 480 kts | 69° |
| 2026-05-04 02:21 | 21.26745 | -94.31534 | 33062 ft | 480 kts | 69° |
| 2026-05-04 02:22 | 21.28672 | -94.24684 | 33063 ft | 480 kts | 69° |
| 2026-05-04 02:22 | 21.30282 | -94.18944 | 33065 ft | 480 kts | 70° |
| 2026-05-04 02:23 | 21.32193 | -94.12074 | 33062 ft | 482 kts | 70° |
| 2026-05-04 02:23 | 21.34109 | -94.05192 | 33064 ft | 481 kts | 69° |
| 2026-05-04 02:24 | 21.36029 | -93.98314 | 33063 ft | 481 kts | 69° |
| 2026-05-04 02:24 | 21.37948 | -93.91431 | 33059 ft | 481 kts | 69° |
| 2026-05-04 02:25 | 21.39863 | -93.84554 | 33059 ft | 481 kts | 70° |
| 2026-05-04 02:25 | 21.41765 | -93.77712 | 33060 ft | 482 kts | 70° |
| 2026-05-04 02:26 | 21.43683 | -93.70801 | 33064 ft | 484 kts | 70° |
| 2026-05-04 02:26 | 21.45595 | -93.63896 | 33063 ft | 483 kts | 70° |
| 2026-05-04 02:27 | 21.47511 | -93.56965 | 33064 ft | 489 kts | 70° |
| 2026-05-04 02:27 | 21.49466 | -93.49892 | 33061 ft | 499 kts | 70° |
| 2026-05-04 02:28 | 21.51457 | -93.42670 | 33066 ft | 510 kts | 70° |
| 2026-05-04 02:28 | 21.53484 | -93.35298 | 33060 ft | 517 kts | 70° |
| 2026-05-04 02:29 | 21.55497 | -93.27898 | 33065 ft | 515 kts | 70° |
| 2026-05-04 02:29 | 21.57506 | -93.20513 | 33065 ft | 515 kts | 70° |
| 2026-05-04 02:30 | 21.59521 | -93.13132 | 33061 ft | 515 kts | 70° |
| 2026-05-04 02:30 | 21.61539 | -93.05741 | 33064 ft | 515 kts | 70° |
| 2026-05-04 02:31 | 21.63555 | -92.98341 | 33064 ft | 517 kts | 71° |
| 2026-05-04 02:31 | 21.65575 | -92.90911 | 33061 ft | 518 kts | 71° |
| 2026-05-04 02:32 | 21.67590 | -92.83481 | 33059 ft | 518 kts | 71° |
| 2026-05-04 02:32 | 21.69603 | -92.76047 | 33063 ft | 518 kts | 71° |
| 2026-05-04 02:33 | 21.71609 | -92.68616 | 33061 ft | 518 kts | 71° |
| 2026-05-04 02:33 | 21.73622 | -92.61178 | 33062 ft | 519 kts | 71° |
| 2026-05-04 02:34 | 21.75645 | -92.53710 | 33064 ft | 520 kts | 71° |
| 2026-05-04 02:34 | 21.77666 | -92.46239 | 33076 ft | 520 kts | 71° |
| 2026-05-04 02:35 | 21.79679 | -92.38781 | 33063 ft | 518 kts | 70° |
| 2026-05-04 02:35 | 21.81672 | -92.31383 | 33061 ft | 518 kts | 70° |
| 2026-05-04 02:36 | 21.83676 | -92.23933 | 33063 ft | 519 kts | 70° |
| 2026-05-04 02:36 | 21.84680 | -92.20198 | 34271 ft | 520 kts | 73° |
| 2026-05-04 02:36 | 21.85681 | -92.16472 | 33878 ft | 512 kts | 73° |
| 2026-05-04 02:37 | 21.86657 | -92.12823 | 33486 ft | 506 kts | 73° |
| 2026-05-04 02:37 | 21.87641 | -92.09142 | 33142 ft | 518 kts | 73° |
| 2026-05-04 02:37 | 21.88645 | -92.05388 | 33028 ft | 526 kts | 72° |
| 2026-05-04 02:37 | 21.89663 | -92.01581 | 33008 ft | 532 kts | 73° |
| 2026-05-04 02:38 | 21.91730 | -91.93828 | 33002 ft | 545 kts | 72° |
| 2026-05-04 02:38 | 21.93839 | -91.85881 | 33003 ft | 559 kts | 72° |
| 2026-05-04 02:39 | 21.95987 | -91.77737 | 33001 ft | 571 kts | 72° |
| 2026-05-04 02:39 | 21.98184 | -91.69426 | 33003 ft | 582 kts | 72° |
| 2026-05-04 02:40 | 22.00426 | -91.60950 | 33002 ft | 592 kts | 72° |
| 2026-05-04 02:40 | 22.02672 | -91.52436 | 32999 ft | 590 kts | 72° |
| 2026-05-04 02:41 | 22.04906 | -91.43939 | 33000 ft | 589 kts | 73° |
| 2026-05-04 02:41 | 22.07122 | -91.35461 | 33000 ft | 589 kts | 73° |
| 2026-05-04 02:42 | 22.09346 | -91.26953 | 33001 ft | 589 kts | 73° |
| 2026-05-04 02:42 | 22.11568 | -91.18448 | 32999 ft | 589 kts | 73° |
| 2026-05-04 02:43 | 22.13771 | -91.09997 | 32999 ft | 589 kts | 73° |
| 2026-05-04 02:43 | 22.15985 | -91.01484 | 33000 ft | 589 kts | 73° |
| 2026-05-04 02:44 | 22.18195 | -90.92966 | 32999 ft | 589 kts | 73° |
| 2026-05-04 02:44 | 22.20399 | -90.84452 | 33000 ft | 589 kts | 73° |
| 2026-05-04 02:45 | 22.22599 | -90.75930 | 33000 ft | 589 kts | 73° |
| 2026-05-04 02:45 | 22.24794 | -90.67413 | 33001 ft | 589 kts | 73° |
| 2026-05-04 02:46 | 22.26985 | -90.58880 | 33001 ft | 589 kts | 73° |
| 2026-05-04 02:46 | 22.29155 | -90.50349 | 33000 ft | 589 kts | 73° |
| 2026-05-04 02:47 | 22.31327 | -90.41815 | 33000 ft | 589 kts | 73° |
| 2026-05-04 02:47 | 22.33505 | -90.33277 | 33001 ft | 589 kts | 73° |
| 2026-05-04 02:48 | 22.35675 | -90.24742 | 33001 ft | 589 kts | 73° |
| 2026-05-04 02:48 | 22.37846 | -90.16169 | 33000 ft | 596 kts | 73° |
| 2026-05-04 02:49 | 22.40058 | -90.07432 | 33003 ft | 609 kts | 73° |
| 2026-05-04 02:49 | 22.42307 | -89.98526 | 33003 ft | 620 kts | 73° |
| 2026-05-04 02:50 | 22.44583 | -89.89482 | 33000 ft | 624 kts | 73° |
| 2026-05-04 02:50 | 22.46851 | -89.80438 | 33000 ft | 622 kts | 73° |
| 2026-05-04 02:51 | 22.49108 | -89.71411 | 32999 ft | 622 kts | 73° |
| 2026-05-04 02:51 | 22.51359 | -89.62374 | 33001 ft | 622 kts | 73° |
| 2026-05-04 02:52 | 22.53613 | -89.53336 | 33000 ft | 622 kts | 73° |
| 2026-05-04 02:52 | 22.55867 | -89.44292 | 32999 ft | 622 kts | 73° |
| 2026-05-04 02:53 | 22.58114 | -89.35251 | 33000 ft | 622 kts | 73° |
| 2026-05-04 02:53 | 22.60357 | -89.26202 | 33000 ft | 622 kts | 73° |
| 2026-05-04 02:54 | 22.62594 | -89.17155 | 33000 ft | 622 kts | 73° |
| 2026-05-04 02:54 | 22.64825 | -89.08106 | 32999 ft | 622 kts | 73° |
| 2026-05-04 02:55 | 22.68163 | -88.94523 | 33000 ft | 622 kts | 73° |
| 2026-05-04 02:56 | 22.70363 | -88.85523 | 33000 ft | 622 kts | 73° |
| 2026-05-04 02:56 | 22.72562 | -88.76449 | 33001 ft | 623 kts | 73° |
| 2026-05-04 02:57 | 22.74757 | -88.67406 | 33000 ft | 623 kts | 73° |
| 2026-05-04 02:57 | 22.76961 | -88.58337 | 32999 ft | 622 kts | 73° |
| 2026-05-04 02:58 | 22.79154 | -88.49263 | 33000 ft | 622 kts | 74° |
| 2026-05-04 02:58 | 22.81341 | -88.40182 | 32998 ft | 622 kts | 74° |
| 2026-05-04 02:59 | 22.83525 | -88.31103 | 33000 ft | 623 kts | 74° |
| 2026-05-04 02:59 | 22.85705 | -88.22017 | 33000 ft | 623 kts | 74° |
| 2026-05-04 03:00 | 22.87874 | -88.12934 | 33000 ft | 622 kts | 74° |
| 2026-05-04 03:00 | 22.90028 | -88.03907 | 33000 ft | 622 kts | 74° |
| 2026-05-04 03:01 | 22.92195 | -87.94813 | 33001 ft | 622 kts | 74° |
| 2026-05-04 03:01 | 22.94355 | -87.85725 | 33001 ft | 622 kts | 74° |
| 2026-05-04 03:02 | 22.96509 | -87.76632 | 33001 ft | 623 kts | 74° |
| 2026-05-04 03:02 | 22.98660 | -87.67529 | 33000 ft | 623 kts | 74° |
| 2026-05-04 03:03 | 23.00806 | -87.58423 | 32999 ft | 622 kts | 74° |
| 2026-05-04 03:03 | 23.02946 | -87.49318 | 32999 ft | 623 kts | 74° |
| 2026-05-04 03:04 | 23.05080 | -87.40211 | 33000 ft | 623 kts | 74° |
| 2026-05-04 03:04 | 23.07199 | -87.31089 | 32998 ft | 623 kts | 75° |
| 2026-05-04 03:05 | 23.09307 | -87.21975 | 33001 ft | 623 kts | 75° |
| 2026-05-04 03:05 | 23.11424 | -87.12852 | 33000 ft | 623 kts | 75° |
| 2026-05-04 03:06 | 23.13536 | -87.03742 | 33000 ft | 623 kts | 75° |
| 2026-05-04 03:06 | 23.15648 | -86.94611 | 32999 ft | 623 kts | 75° |
| 2026-05-04 03:07 | 23.17752 | -86.85481 | 33000 ft | 623 kts | 75° |
| 2026-05-04 03:07 | 23.19836 | -86.76414 | 33000 ft | 623 kts | 75° |
| 2026-05-04 03:08 | 23.21926 | -86.67287 | 33000 ft | 623 kts | 75° |
| 2026-05-04 03:08 | 23.24004 | -86.58148 | 33001 ft | 623 kts | 75° |
| 2026-05-04 03:09 | 23.26085 | -86.49004 | 33000 ft | 623 kts | 75° |
| 2026-05-04 03:09 | 23.28166 | -86.39866 | 33001 ft | 623 kts | 75° |
| 2026-05-04 03:10 | 23.30241 | -86.30723 | 33001 ft | 623 kts | 75° |
| 2026-05-04 03:10 | 23.32298 | -86.21574 | 33001 ft | 623 kts | 75° |
| 2026-05-04 03:11 | 23.34353 | -86.12417 | 33000 ft | 623 kts | 75° |
| 2026-05-04 03:11 | 23.36404 | -86.03264 | 33000 ft | 623 kts | 75° |
| 2026-05-04 03:12 | 23.38111 | -85.95614 | 33000 ft | 623 kts | 75° |
| 2026-05-04 03:12 | 23.40135 | -85.86518 | 33000 ft | 623 kts | 75° |
| 2026-05-04 03:13 | 23.42187 | -85.77289 | 32999 ft | 623 kts | 75° |
| 2026-05-04 03:13 | 23.44207 | -85.68188 | 32999 ft | 623 kts | 75° |
| 2026-05-04 03:14 | 23.46236 | -85.59021 | 33001 ft | 623 kts | 75° |
| 2026-05-04 03:14 | 23.48256 | -85.49846 | 33001 ft | 623 kts | 75° |
| 2026-05-04 03:15 | 23.50268 | -85.40669 | 33001 ft | 623 kts | 75° |
| 2026-05-04 03:15 | 23.52281 | -85.31492 | 33001 ft | 623 kts | 75° |
| 2026-05-04 03:16 | 23.54292 | -85.22314 | 33001 ft | 623 kts | 75° |
| 2026-05-04 03:16 | 23.56299 | -85.13127 | 33001 ft | 623 kts | 75° |
| 2026-05-04 03:17 | 23.58291 | -85.03942 | 33000 ft | 623 kts | 76° |
| 2026-05-04 03:17 | 23.60278 | -84.94750 | 33000 ft | 623 kts | 76° |
| 2026-05-04 03:18 | 23.62265 | -84.85560 | 33000 ft | 623 kts | 76° |
| 2026-05-04 03:18 | 23.64249 | -84.76365 | 33000 ft | 623 kts | 76° |
| 2026-05-04 03:19 | 23.66227 | -84.67170 | 32999 ft | 623 kts | 76° |
| 2026-05-04 03:19 | 23.68198 | -84.57973 | 33000 ft | 623 kts | 76° |
| 2026-05-04 03:20 | 23.70165 | -84.48769 | 33001 ft | 623 kts | 76° |
| 2026-05-04 03:20 | 23.72126 | -84.39566 | 33001 ft | 623 kts | 76° |
| 2026-05-04 03:21 | 23.74083 | -84.30353 | 33001 ft | 623 kts | 76° |
| 2026-05-04 03:21 | 23.76025 | -84.21140 | 33001 ft | 623 kts | 76° |
| 2026-05-04 03:22 | 23.77942 | -84.11922 | 33000 ft | 623 kts | 76° |
| 2026-05-04 03:22 | 23.79862 | -84.02698 | 32999 ft | 623 kts | 76° |
| 2026-05-04 03:23 | 23.81784 | -83.93475 | 33000 ft | 623 kts | 76° |
| 2026-05-04 03:23 | 23.83702 | -83.84251 | 32999 ft | 623 kts | 76° |
| 2026-05-04 03:24 | 23.85615 | -83.75021 | 33000 ft | 623 kts | 76° |
| 2026-05-04 03:24 | 23.87522 | -83.65786 | 33000 ft | 623 kts | 76° |
| 2026-05-04 03:25 | 23.89409 | -83.56617 | 32999 ft | 623 kts | 76° |
| 2026-05-04 03:25 | 23.91303 | -83.47384 | 32999 ft | 623 kts | 76° |
| 2026-05-04 03:26 | 23.93193 | -83.38143 | 33001 ft | 623 kts | 76° |
| 2026-05-04 03:26 | 23.95064 | -83.28895 | 32999 ft | 623 kts | 77° |
| 2026-05-04 03:27 | 23.96922 | -83.19673 | 33000 ft | 623 kts | 77° |
| 2026-05-04 03:27 | 23.98792 | -83.10422 | 33001 ft | 623 kts | 77° |
| 2026-05-04 03:28 | 24.01464 | -83.01471 | 33001 ft | 617 kts | 62° |
| 2026-05-04 03:28 | 24.05245 | -82.93079 | 33000 ft | 614 kts | 57° |
| 2026-05-04 03:29 | 24.09161 | -82.84766 | 33001 ft | 615 kts | 58° |
| 2026-05-04 03:29 | 24.12938 | -82.76367 | 33000 ft | 616 kts | 59° |
| 2026-05-04 03:30 | 24.16639 | -82.67906 | 33000 ft | 616 kts | 59° |
| 2026-05-04 03:30 | 24.20331 | -82.59440 | 33000 ft | 616 kts | 59° |
| 2026-05-04 03:31 | 24.24030 | -82.50977 | 32999 ft | 616 kts | 59° |
| 2026-05-04 03:31 | 24.27729 | -82.42510 | 32999 ft | 616 kts | 59° |
| 2026-05-04 03:32 | 24.31424 | -82.34037 | 32999 ft | 616 kts | 59° |
| 2026-05-04 03:32 | 24.35113 | -82.25560 | 33000 ft | 616 kts | 60° |
| 2026-05-04 03:33 | 24.38782 | -82.17068 | 32999 ft | 616 kts | 60° |
| 2026-05-04 03:33 | 24.42451 | -82.08575 | 33001 ft | 616 kts | 60° |
| 2026-05-04 03:34 | 24.46127 | -82.00077 | 32999 ft | 616 kts | 60° |
| 2026-05-04 03:34 | 24.49474 | -81.91401 | 33000 ft | 621 kts | 70° |
| 2026-05-04 03:35 | 24.51704 | -81.82229 | 33000 ft | 623 kts | 76° |
| 2026-05-04 03:35 | 24.53622 | -81.72953 | 32999 ft | 623 kts | 76° |
| 2026-05-04 03:36 | 24.55642 | -81.63704 | 33000 ft | 623 kts | 75° |
| 2026-05-04 03:36 | 24.57751 | -81.54480 | 33000 ft | 623 kts | 74° |
| 2026-05-04 03:37 | 24.59871 | -81.45254 | 33000 ft | 623 kts | 75° |
| 2026-05-04 03:37 | 24.61960 | -81.36089 | 33000 ft | 623 kts | 75° |
| 2026-05-04 03:38 | 24.64050 | -81.26853 | 33001 ft | 623 kts | 75° |
| 2026-05-04 03:38 | 24.65717 | -81.17521 | 32999 ft | 623 kts | 83° |
| 2026-05-04 03:39 | 24.66691 | -81.08064 | 33000 ft | 623 kts | 85° |
| 2026-05-04 03:39 | 24.67564 | -80.98591 | 33000 ft | 623 kts | 85° |
| 2026-05-04 03:40 | 24.68520 | -80.89125 | 32999 ft | 623 kts | 84° |
| 2026-05-04 03:40 | 24.69519 | -80.79667 | 33001 ft | 623 kts | 84° |
| 2026-05-04 03:41 | 24.70515 | -80.70207 | 33000 ft | 623 kts | 84° |
| 2026-05-04 03:41 | 24.71561 | -80.60759 | 32998 ft | 622 kts | 79° |
| 2026-05-04 03:42 | 24.74094 | -80.51730 | 33000 ft | 618 kts | 63° |
| 2026-05-04 03:42 | 24.77595 | -80.43112 | 32999 ft | 617 kts | 61° |
| 2026-05-04 03:43 | 24.81078 | -80.34473 | 33000 ft | 618 kts | 63° |
| 2026-05-04 03:43 | 24.84387 | -80.25741 | 33000 ft | 619 kts | 64° |
| 2026-05-04 03:44 | 24.87634 | -80.16963 | 33001 ft | 619 kts | 64° |
| 2026-05-04 03:44 | 24.90882 | -80.08189 | 33001 ft | 619 kts | 64° |
| 2026-05-04 03:45 | 24.94118 | -79.99471 | 33001 ft | 619 kts | 64° |
| 2026-05-04 03:45 | 24.97373 | -79.90695 | 32999 ft | 619 kts | 64° |
| 2026-05-04 03:46 | 25.00619 | -79.81921 | 33000 ft | 619 kts | 64° |
| 2026-05-04 03:46 | 25.03857 | -79.73130 | 33000 ft | 619 kts | 64° |
| 2026-05-04 03:47 | 25.07079 | -79.64324 | 33000 ft | 619 kts | 64° |
| 2026-05-04 03:47 | 25.10306 | -79.55521 | 33000 ft | 619 kts | 64° |
| 2026-05-04 03:48 | 25.13533 | -79.46722 | 33000 ft | 619 kts | 64° |
| 2026-05-04 03:48 | 25.16757 | -79.37915 | 32999 ft | 619 kts | 64° |
| 2026-05-04 03:49 | 25.19974 | -79.29105 | 33001 ft | 619 kts | 64° |
| 2026-05-04 03:49 | 25.23186 | -79.20289 | 32999 ft | 619 kts | 64° |
| 2026-05-04 03:50 | 25.26394 | -79.11463 | 32999 ft | 619 kts | 64° |
| 2026-05-04 03:50 | 25.29596 | -79.02636 | 33000 ft | 619 kts | 64° |
| 2026-05-04 03:51 | 25.32793 | -78.93804 | 33000 ft | 619 kts | 64° |
| 2026-05-04 03:51 | 25.35974 | -78.84958 | 32999 ft | 619 kts | 65° |
| 2026-05-04 03:52 | 25.39145 | -78.76111 | 32999 ft | 619 kts | 65° |
| 2026-05-04 03:52 | 25.42324 | -78.67259 | 33000 ft | 619 kts | 64° |
| 2026-05-04 03:53 | 25.45480 | -78.58467 | 33000 ft | 619 kts | 65° |
| 2026-05-04 03:53 | 25.48652 | -78.49608 | 32998 ft | 619 kts | 65° |
| 2026-05-04 03:54 | 25.51818 | -78.40748 | 33001 ft | 619 kts | 65° |
| 2026-05-04 03:54 | 25.54980 | -78.31876 | 33000 ft | 619 kts | 65° |
| 2026-05-04 03:55 | 25.58135 | -78.23003 | 33000 ft | 619 kts | 65° |
| 2026-05-04 03:55 | 25.61273 | -78.14121 | 33000 ft | 619 kts | 65° |
| 2026-05-04 03:56 | 25.64397 | -78.05221 | 33000 ft | 619 kts | 65° |
| 2026-05-04 03:56 | 25.67522 | -77.96328 | 33000 ft | 619 kts | 65° |
| 2026-05-04 03:57 | 25.70639 | -77.87454 | 33000 ft | 619 kts | 65° |
| 2026-05-04 03:57 | 25.73760 | -77.78550 | 32998 ft | 619 kts | 65° |
| 2026-05-04 03:58 | 25.78410 | -77.65244 | 33001 ft | 619 kts | 65° |
| 2026-05-04 03:58 | 25.81516 | -77.56327 | 33000 ft | 619 kts | 65° |
| 2026-05-04 03:59 | 25.84617 | -77.47407 | 33000 ft | 619 kts | 65° |
| 2026-05-04 03:59 | 25.87712 | -77.38483 | 33000 ft | 619 kts | 65° |
| 2026-05-04 04:00 | 25.90796 | -77.29546 | 33001 ft | 620 kts | 66° |
| 2026-05-04 04:00 | 25.93346 | -77.22110 | 33000 ft | 620 kts | 65° |
| 2026-05-04 04:01 | 25.96419 | -77.13165 | 33000 ft | 620 kts | 65° |
| 2026-05-04 04:01 | 25.99494 | -77.04219 | 33000 ft | 620 kts | 65° |
| 2026-05-04 04:02 | 26.02565 | -76.95271 | 33000 ft | 620 kts | 66° |
| 2026-05-04 04:02 | 26.05631 | -76.86313 | 33001 ft | 620 kts | 66° |
| 2026-05-04 04:03 | 26.08689 | -76.77353 | 32999 ft | 620 kts | 66° |
| 2026-05-04 04:03 | 26.11744 | -76.68384 | 33000 ft | 620 kts | 66° |
| 2026-05-04 04:04 | 26.14790 | -76.59418 | 33000 ft | 620 kts | 66° |
| 2026-05-04 04:04 | 26.17835 | -76.50437 | 33000 ft | 620 kts | 66° |
| 2026-05-04 04:05 | 26.20860 | -76.41454 | 33000 ft | 620 kts | 66° |
| 2026-05-04 04:05 | 26.23876 | -76.32458 | 33000 ft | 620 kts | 66° |
| 2026-05-04 04:06 | 26.26896 | -76.23468 | 32999 ft | 620 kts | 66° |
| 2026-05-04 04:06 | 26.29918 | -76.14474 | 33000 ft | 620 kts | 66° |
| 2026-05-04 04:07 | 26.32933 | -76.05476 | 33000 ft | 620 kts | 66° |
| 2026-05-04 04:07 | 26.35945 | -75.96465 | 33000 ft | 620 kts | 66° |
| 2026-05-04 04:08 | 26.38946 | -75.87460 | 33000 ft | 620 kts | 66° |
| 2026-05-04 04:08 | 26.41946 | -75.78440 | 32999 ft | 620 kts | 66° |
| 2026-05-04 04:09 | 26.44937 | -75.69424 | 33001 ft | 620 kts | 66° |
| 2026-05-04 04:09 | 26.47925 | -75.60394 | 33000 ft | 620 kts | 66° |
| 2026-05-04 04:10 | 26.50890 | -75.51356 | 33001 ft | 620 kts | 66° |
| 2026-05-04 04:10 | 26.53834 | -75.42371 | 33000 ft | 620 kts | 66° |
| 2026-05-04 04:11 | 26.56822 | -75.33272 | 33001 ft | 620 kts | 66° |
| 2026-05-04 04:11 | 26.59760 | -75.24312 | 33001 ft | 620 kts | 66° |
| 2026-05-04 04:12 | 26.62719 | -75.15263 | 33000 ft | 620 kts | 67° |
| 2026-05-04 04:12 | 26.65673 | -75.06206 | 33001 ft | 620 kts | 67° |
| 2026-05-04 04:13 | 26.68621 | -74.97144 | 33000 ft | 620 kts | 67° |
| 2026-05-04 04:13 | 26.71562 | -74.88082 | 33000 ft | 620 kts | 67° |
| 2026-05-04 04:14 | 26.74500 | -74.79006 | 33000 ft | 620 kts | 67° |
| 2026-05-04 04:14 | 26.77427 | -74.69926 | 33000 ft | 620 kts | 67° |
| 2026-05-04 04:15 | 26.80333 | -74.60836 | 32999 ft | 620 kts | 67° |
| 2026-05-04 04:15 | 26.83244 | -74.51745 | 33000 ft | 620 kts | 67° |
| 2026-05-04 04:16 | 26.86157 | -74.42658 | 32999 ft | 620 kts | 67° |
| 2026-05-04 04:16 | 26.89231 | -74.33649 | 32998 ft | 615 kts | 59° |
| 2026-05-04 04:17 | 26.93617 | -74.25545 | 33001 ft | 605 kts | 47° |
| 2026-05-04 04:17 | 26.98542 | -74.17921 | 33001 ft | 604 kts | 46° |
| 2026-05-04 04:18 | 27.03405 | -74.10231 | 33000 ft | 605 kts | 47° |
| 2026-05-04 04:18 | 27.08122 | -74.02473 | 33000 ft | 606 kts | 49° |
| 2026-05-04 04:19 | 27.12833 | -73.94628 | 33000 ft | 606 kts | 49° |
| 2026-05-04 04:19 | 27.17552 | -73.86776 | 32998 ft | 606 kts | 49° |
| 2026-05-04 04:20 | 27.22272 | -73.78930 | 33000 ft | 606 kts | 49° |
| 2026-05-04 04:20 | 27.26990 | -73.71078 | 33000 ft | 606 kts | 49° |
| 2026-05-04 04:21 | 27.31707 | -73.63212 | 32999 ft | 606 kts | 49° |
| 2026-05-04 04:21 | 27.36410 | -73.55342 | 33001 ft | 607 kts | 49° |
| 2026-05-04 04:22 | 27.41101 | -73.47452 | 33000 ft | 607 kts | 49° |
| 2026-05-04 04:22 | 27.45798 | -73.39559 | 33001 ft | 607 kts | 49° |
| 2026-05-04 04:23 | 27.50497 | -73.31666 | 33000 ft | 607 kts | 49° |
| 2026-05-04 04:23 | 27.55189 | -73.23772 | 33000 ft | 607 kts | 49° |
| 2026-05-04 04:24 | 27.59880 | -73.15863 | 32999 ft | 607 kts | 49° |
| 2026-05-04 04:24 | 27.64564 | -73.07951 | 33000 ft | 607 kts | 49° |
| 2026-05-04 04:25 | 27.69246 | -73.00028 | 33001 ft | 607 kts | 49° |
| 2026-05-04 04:25 | 27.73920 | -72.92104 | 33000 ft | 607 kts | 49° |
| 2026-05-04 04:26 | 27.78594 | -72.84166 | 33000 ft | 607 kts | 49° |
| 2026-05-04 04:26 | 27.83242 | -72.76240 | 33000 ft | 607 kts | 49° |
| 2026-05-04 04:27 | 27.87892 | -72.68276 | 33001 ft | 607 kts | 49° |
| 2026-05-04 04:27 | 27.92546 | -72.60314 | 33000 ft | 607 kts | 49° |
| 2026-05-04 04:28 | 27.97203 | -72.52348 | 33000 ft | 607 kts | 49° |
| 2026-05-04 04:28 | 28.01854 | -72.44378 | 33001 ft | 607 kts | 49° |
| 2026-05-04 04:29 | 28.06504 | -72.36393 | 33000 ft | 607 kts | 49° |
| 2026-05-04 04:29 | 28.11145 | -72.28407 | 33001 ft | 607 kts | 49° |
| 2026-05-04 04:30 | 28.15785 | -72.20410 | 33000 ft | 607 kts | 49° |
| 2026-05-04 04:30 | 28.20417 | -72.12409 | 33001 ft | 607 kts | 50° |
| 2026-05-04 04:31 | 28.25047 | -72.04398 | 33000 ft | 607 kts | 50° |
| 2026-05-04 04:31 | 28.29665 | -71.96370 | 33000 ft | 608 kts | 50° |
| 2026-05-04 04:32 | 28.34251 | -71.88311 | 33001 ft | 608 kts | 50° |
| 2026-05-04 04:32 | 28.38768 | -71.80260 | 33001 ft | 608 kts | 51° |
| 2026-05-04 04:33 | 28.43305 | -71.72151 | 33000 ft | 608 kts | 51° |
| 2026-05-04 04:33 | 28.47843 | -71.64038 | 33001 ft | 608 kts | 51° |
| 2026-05-04 04:34 | 28.52411 | -71.55863 | 33000 ft | 608 kts | 51° |
| 2026-05-04 04:34 | 28.56914 | -71.47789 | 33000 ft | 608 kts | 51° |
| 2026-05-04 04:35 | 28.61443 | -71.39651 | 33001 ft | 609 kts | 51° |
| 2026-05-04 04:35 | 28.65966 | -71.31509 | 32999 ft | 609 kts | 51° |
| 2026-05-04 04:36 | 28.70484 | -71.23360 | 33001 ft | 609 kts | 51° |
| 2026-05-04 04:36 | 28.74999 | -71.15199 | 33000 ft | 609 kts | 51° |
| 2026-05-04 04:37 | 28.83990 | -70.98836 | 33001 ft | 609 kts | 51° |
| 2026-05-04 04:38 | 28.88536 | -70.90696 | 33000 ft | 608 kts | 50° |
| 2026-05-04 04:38 | 28.93129 | -70.82598 | 33000 ft | 608 kts | 50° |
| 2026-05-04 04:39 | 28.97721 | -70.74501 | 33000 ft | 608 kts | 50° |
| 2026-05-04 04:39 | 29.02305 | -70.66381 | 33001 ft | 608 kts | 50° |
| 2026-05-04 04:40 | 29.06880 | -70.58253 | 33001 ft | 608 kts | 50° |
| 2026-05-04 04:40 | 29.11448 | -70.50120 | 33001 ft | 608 kts | 50° |
| 2026-05-04 04:41 | 29.16013 | -70.41976 | 32999 ft | 608 kts | 50° |
| 2026-05-04 04:41 | 29.20562 | -70.33849 | 33000 ft | 608 kts | 50° |
| 2026-05-04 04:42 | 29.25118 | -70.25691 | 33000 ft | 608 kts | 50° |
| 2026-05-04 04:42 | 29.29671 | -70.17520 | 33000 ft | 608 kts | 51° |
| 2026-05-04 04:43 | 29.34201 | -70.09335 | 33000 ft | 608 kts | 51° |
| 2026-05-04 04:43 | 29.38734 | -70.01142 | 33001 ft | 608 kts | 51° |
| 2026-05-04 04:44 | 29.43272 | -69.92949 | 33000 ft | 608 kts | 51° |
| 2026-05-04 04:44 | 29.47804 | -69.84756 | 33001 ft | 608 kts | 51° |
| 2026-05-04 04:45 | 29.52334 | -69.76549 | 33001 ft | 608 kts | 51° |
| 2026-05-04 04:47 | 29.68117 | -69.47819 | 33001 ft | 609 kts | 51° |
| 2026-05-04 04:47 | 29.72625 | -69.39574 | 32999 ft | 609 kts | 51° |
| 2026-05-04 04:48 | 29.77114 | -69.31318 | 33000 ft | 609 kts | 51° |
| 2026-05-04 04:49 | 29.87606 | -69.11980 | 32999 ft | 609 kts | 51° |
| 2026-05-04 04:49 | 29.92094 | -69.03703 | 32999 ft | 609 kts | 51° |
| 2026-05-04 04:50 | 29.96576 | -68.95419 | 33000 ft | 609 kts | 51° |
| 2026-05-04 04:50 | 30.01055 | -68.87122 | 33000 ft | 609 kts | 51° |
| 2026-05-04 04:51 | 30.05528 | -68.78817 | 33000 ft | 609 kts | 51° |
| 2026-05-04 04:51 | 30.09994 | -68.70509 | 33001 ft | 609 kts | 51° |
| 2026-05-04 04:52 | 30.14458 | -68.62187 | 33000 ft | 609 kts | 51° |
| 2026-05-04 04:52 | 30.18911 | -68.53859 | 33000 ft | 609 kts | 52° |
| 2026-05-04 04:53 | 30.23349 | -68.45505 | 33000 ft | 610 kts | 52° |
| 2026-05-04 04:53 | 30.27758 | -68.37209 | 33000 ft | 609 kts | 52° |
| 2026-05-04 04:54 | 30.32201 | -68.28856 | 33000 ft | 609 kts | 52° |
| 2026-05-04 04:54 | 30.36641 | -68.20496 | 33000 ft | 609 kts | 52° |
| 2026-05-04 04:55 | 30.41074 | -68.12129 | 33000 ft | 610 kts | 52° |
| 2026-05-04 04:55 | 30.45502 | -68.03752 | 33001 ft | 610 kts | 52° |
| 2026-05-04 04:56 | 30.49925 | -67.95366 | 33001 ft | 610 kts | 52° |
| 2026-05-04 04:56 | 30.54331 | -67.86995 | 33000 ft | 610 kts | 52° |
| 2026-05-04 04:57 | 30.58747 | -67.78587 | 33000 ft | 610 kts | 52° |
| 2026-05-04 04:57 | 30.63150 | -67.70171 | 33000 ft | 610 kts | 52° |
| 2026-05-04 04:58 | 30.67931 | -67.62148 | 33000 ft | 599 kts | 42° |
| 2026-05-04 04:58 | 30.73348 | -67.54861 | 33001 ft | 594 kts | 38° |
| 2026-05-04 04:59 | 30.78859 | -67.47694 | 32999 ft | 595 kts | 39° |
| 2026-05-04 04:59 | 30.84297 | -67.40431 | 32998 ft | 596 kts | 40° |
| 2026-05-04 05:00 | 30.89655 | -67.33151 | 32999 ft | 596 kts | 40° |
| 2026-05-04 05:01 | 30.97737 | -67.22132 | 33000 ft | 596 kts | 40° |
| 2026-05-04 05:01 | 31.03125 | -67.14783 | 33001 ft | 596 kts | 40° |
| 2026-05-04 05:02 | 31.08512 | -67.07426 | 32998 ft | 596 kts | 40° |
| 2026-05-04 05:02 | 31.13894 | -67.00062 | 33000 ft | 596 kts | 40° |
| 2026-05-04 05:03 | 31.19259 | -66.92697 | 32580 ft | 592 kts | 40° |
| 2026-05-04 05:03 | 31.21915 | -66.89030 | 31634 ft | 589 kts | 41° |
| 2026-05-04 05:04 | 31.29105 | -66.79065 | 29979 ft | 485 kts | 49° |
| 2026-05-04 05:04 | 31.31316 | -66.76023 | 27309 ft | 499 kts | 47° |
| 2026-05-04 05:04 | 31.33590 | -66.72905 | 25576 ft | 512 kts | 47° |
| 2026-05-04 05:06 | 31.49096 | -66.51547 | 19127 ft | 486 kts | 47° |
| 2026-05-04 05:06 | 31.51269 | -66.48544 | 18251 ft | 480 kts | 47° |
| 2026-05-04 05:06 | 31.53410 | -66.45582 | 17378 ft | 472 kts | 47° |
| 2026-05-04 05:07 | 31.55511 | -66.42672 | 16575 ft | 463 kts | 47° |
| 2026-05-04 05:07 | 31.57572 | -66.39816 | 15793 ft | 455 kts | 47° |
| 2026-05-04 05:07 | 31.59598 | -66.37006 | 15027 ft | 446 kts | 46° |
| 2026-05-04 05:09 | 31.73507 | -66.17602 | 11987 ft | 341 kts | 46° |
| 2026-05-04 05:09 | 31.75020 | -66.15483 | 11493 ft | 338 kts | 46° |
| 2026-05-04 05:10 | 31.76530 | -66.13367 | 11002 ft | 336 kts | 47° |
| 2026-05-04 05:10 | 31.78025 | -66.11269 | 10519 ft | 333 kts | 47° |
| 2026-05-04 05:10 | 31.79506 | -66.09190 | 10057 ft | 331 kts | 47° |
| 2026-05-04 05:10 | 31.80978 | -66.07121 | 9548 ft | 328 kts | 47° |
| 2026-05-04 05:11 | 31.82433 | -66.05075 | 9099 ft | 325 kts | 47° |
| 2026-05-04 05:11 | 31.83873 | -66.03048 | 8640 ft | 321 kts | 47° |
| 2026-05-04 05:11 | 31.85298 | -66.01041 | 8209 ft | 318 kts | 48° |
| 2026-05-04 05:11 | 31.86692 | -65.99077 | 7825 ft | 312 kts | 47° |
| 2026-05-04 05:12 | 31.88076 | -65.97126 | 7374 ft | 309 kts | 48° |
| 2026-05-04 05:12 | 31.89446 | -65.95194 | 6977 ft | 305 kts | 48° |
| 2026-05-04 05:12 | 31.90789 | -65.93300 | 6635 ft | 299 kts | 48° |
| 2026-05-04 05:12 | 31.92116 | -65.91425 | 6163 ft | 298 kts | 48° |
| 2026-05-04 05:13 | 31.93437 | -65.89561 | 5732 ft | 295 kts | 48° |
| 2026-05-04 05:13 | 31.94738 | -65.87722 | 5330 ft | 291 kts | 48° |
| 2026-05-04 05:13 | 31.96026 | -65.85902 | 4939 ft | 287 kts | 48° |
| 2026-05-04 05:13 | 31.97280 | -65.84127 | 4917 ft | 282 kts | 48° |
| 2026-05-04 05:14 | 31.98554 | -65.82327 | 5311 ft | 289 kts | 48° |
| 2026-05-04 05:14 | 31.99843 | -65.80504 | 5676 ft | 291 kts | 48° |
| 2026-05-04 05:14 | 32.01145 | -65.78661 | 5952 ft | 296 kts | 48° |
| 2026-05-04 05:14 | 32.02462 | -65.76796 | 6005 ft | 296 kts | 48° |
| 2026-05-04 05:15 | 32.03779 | -65.74928 | 6023 ft | 297 kts | 48° |
| 2026-05-04 05:15 | 32.05097 | -65.73058 | 6030 ft | 296 kts | 48° |
| 2026-05-04 05:15 | 32.06406 | -65.71199 | 6016 ft | 293 kts | 48° |
| 2026-05-04 05:15 | 32.07704 | -65.69354 | 6014 ft | 293 kts | 48° |
| 2026-05-04 05:16 | 32.09005 | -65.67507 | 6024 ft | 293 kts | 48° |
| 2026-05-04 05:16 | 32.10307 | -65.65658 | 6020 ft | 293 kts | 48° |
| 2026-05-04 05:16 | 32.11546 | -65.63751 | 6017 ft | 294 kts | 58° |
| 2026-05-04 05:16 | 32.12256 | -65.61504 | 6023 ft | 295 kts | 78° |
| 2026-05-04 05:17 | 32.12586 | -65.59108 | 6017 ft | 297 kts | 84° |
| 2026-05-04 05:17 | 32.12820 | -65.56684 | 6014 ft | 298 kts | 85° |
| 2026-05-04 05:17 | 32.13036 | -65.54269 | 5684 ft | 296 kts | 84° |
| 2026-05-04 05:17 | 32.13254 | -65.51864 | 5268 ft | 293 kts | 84° |
| 2026-05-04 05:18 | 32.13470 | -65.49520 | 4879 ft | 289 kts | 84° |
| 2026-05-04 05:18 | 32.13689 | -65.47178 | 4468 ft | 285 kts | 83° |
| 2026-05-04 05:18 | 32.13907 | -65.44879 | 4101 ft | 280 kts | 83° |
| 2026-05-04 05:18 | 32.14126 | -65.42579 | 3687 ft | 278 kts | 82° |
| 2026-05-04 05:19 | 32.14339 | -65.40348 | 3387 ft | 270 kts | 82° |
| 2026-05-04 05:19 | 32.14546 | -65.38168 | 3000 ft | 265 kts | 79° |
| 2026-05-04 05:19 | 32.14746 | -65.36062 | 2628 ft | 259 kts | 80° |
| 2026-05-04 05:19 | 32.14946 | -65.33967 | 2244 ft | 255 kts | 79° |
| 2026-05-04 05:20 | 32.15143 | -65.31917 | 2051 ft | 247 kts | 81° |
| 2026-05-04 05:20 | 32.15338 | -65.29891 | 2008 ft | 251 kts | 80° |
| 2026-05-04 05:20 | 32.15537 | -65.27828 | 2020 ft | 253 kts | 79° |
| 2026-05-04 05:20 | 32.15735 | -65.25772 | 2014 ft | 253 kts | 80° |
| 2026-05-04 05:21 | 32.15933 | -65.23699 | 2013 ft | 255 kts | 80° |
| 2026-05-04 05:21 | 32.16130 | -65.21617 | 2016 ft | 255 kts | 79° |
| 2026-05-04 05:21 | 32.16329 | -65.19539 | 2019 ft | 256 kts | 81° |
| 2026-05-04 05:21 | 32.16527 | -65.17445 | 2018 ft | 255 kts | 80° |
| 2026-05-04 05:22 | 32.16723 | -65.15372 | 2007 ft | 255 kts | 79° |
| 2026-05-04 05:22 | 32.16921 | -65.13286 | 2011 ft | 256 kts | 80° |
| 2026-05-04 05:22 | 32.17118 | -65.11199 | 2017 ft | 256 kts | 81° |
| 2026-05-04 05:22 | 32.17307 | -65.09172 | 1996 ft | 240 kts | 81° |
| 2026-05-04 05:23 | 32.17478 | -65.07293 | 2016 ft | 228 kts | 79° |
| 2026-05-04 05:23 | 32.17656 | -65.05418 | 2011 ft | 228 kts | 80° |
| 2026-05-04 05:23 | 32.17831 | -65.03565 | 2014 ft | 227 kts | 81° |
| 2026-05-04 05:23 | 32.18003 | -65.01721 | 2005 ft | 226 kts | 79° |
| 2026-05-04 05:24 | 32.18177 | -64.99875 | 2009 ft | 223 kts | 81° |
| 2026-05-04 05:24 | 32.18336 | -64.98142 | 1993 ft | 206 kts | 81° |
| 2026-05-04 05:24 | 32.18493 | -64.96451 | 1995 ft | 206 kts | 79° |
| 2026-05-04 05:24 | 32.18647 | -64.94787 | 1991 ft | 203 kts | 79° |
| 2026-05-04 05:25 | 32.18800 | -64.93146 | 1988 ft | 196 kts | 80° |
| 2026-05-04 05:25 | 32.18946 | -64.91557 | 1996 ft | 196 kts | 79° |
| 2026-05-04 05:25 | 32.19094 | -64.89972 | 2006 ft | 194 kts | 79° |
| 2026-05-04 05:25 | 32.19241 | -64.88391 | 1985 ft | 194 kts | 79° |
| 2026-05-04 05:26 | 32.19387 | -64.86810 | 2003 ft | 193 kts | 78° |
| 2026-05-04 05:26 | 32.19534 | -64.85232 | 1995 ft | 194 kts | 80° |
| 2026-05-04 05:26 | 32.19682 | -64.83641 | 2004 ft | 194 kts | 80° |
| 2026-05-04 05:26 | 32.19825 | -64.82070 | 1994 ft | 193 kts | 78° |
| 2026-05-04 05:27 | 32.19967 | -64.80519 | 1982 ft | 182 kts | 79° |
| 2026-05-04 05:28 | 32.20907 | -64.70239 | 1988 ft | 178 kts | 79° |
| 2026-05-04 05:29 | 32.21039 | -64.68782 | 1989 ft | 180 kts | 79° |
| 2026-05-04 05:29 | 32.21174 | -64.67313 | 1991 ft | 180 kts | 80° |
| 2026-05-04 05:29 | 32.21306 | -64.65851 | 1984 ft | 179 kts | 79° |
| 2026-05-04 05:29 | 32.21435 | -64.64382 | 2005 ft | 180 kts | 79° |
| 2026-05-04 05:31 | 32.22324 | -64.54147 | 1989 ft | 178 kts | 79° |
| 2026-05-04 05:31 | 32.22455 | -64.52691 | 1981 ft | 179 kts | 79° |
| 2026-05-04 05:32 | 32.22719 | -64.51271 | 1989 ft | 174 kts | 65° |
| 2026-05-04 05:32 | 32.23306 | -64.50055 | 1983 ft | 169 kts | 46° |
| 2026-05-04 05:32 | 32.24192 | -64.49161 | 1989 ft | 167 kts | 26° |
| 2026-05-04 05:33 | 32.26387 | -64.48573 | 1987 ft | 160 kts | 1° |
| 2026-05-04 05:33 | 32.27497 | -64.48506 | 1974 ft | 160 kts | 2° |
| 2026-05-04 05:33 | 32.28612 | -64.48442 | 1992 ft | 160 kts | 0° |
| 2026-05-04 05:33 | 32.29709 | -64.48385 | 1984 ft | 156 kts | 0° |
| 2026-05-04 05:34 | 32.30786 | -64.48467 | 1988 ft | 154 kts | 348° |
| 2026-05-04 05:34 | 32.31786 | -64.48902 | 1974 ft | 153 kts | 330° |
| 2026-05-04 05:34 | 32.32577 | -64.49648 | 1921 ft | 135 kts | 314° |
| 2026-05-04 05:34 | 32.33085 | -64.50543 | 1920 ft | 133 kts | 299° |
| 2026-05-04 05:35 | 32.33384 | -64.51616 | 2038 ft | 141 kts | 288° |
| 2026-05-04 05:35 | 32.33609 | -64.52746 | 2011 ft | 141 kts | 287° |
| 2026-05-04 05:35 | 32.33829 | -64.53879 | 1980 ft | 142 kts | 288° |
| 2026-05-04 05:35 | 32.34048 | -64.55020 | 1993 ft | 143 kts | 288° |
| 2026-05-04 05:36 | 32.34265 | -64.56176 | 1908 ft | 146 kts | 287° |
| 2026-05-04 05:36 | 32.34484 | -64.57329 | 1697 ft | 142 kts | 288° |
| 2026-05-04 05:36 | 32.34652 | -64.58070 | 1514 ft | 140 kts | 288° |
| 2026-05-04 05:36 | 32.34866 | -64.59177 | 1140 ft | 148 kts | 284° |
| 2026-05-04 05:37 | 32.35021 | -64.60404 | 999 ft | 148 kts | 283° |
| 2026-05-04 05:37 | 32.35193 | -64.61585 | 785 ft | 144 kts | 285° |
| 2026-05-04 05:37 | 32.35411 | -64.62855 | 660 ft | 165 kts | 288° |
| 2026-05-04 05:38 | 32.35948 | -64.65387 | 219 ft | 156 kts | 287° |
| 2026-05-04 05:38 | 32.36171 | -64.66628 | 32 ft | 146 kts | 288° |
| 2026-05-04 05:38 | 32.36376 | -64.67642 | 12 ft | 107 kts | 279° |
| 2026-05-04 05:38 | 32.36502 | -64.68359 | 15 ft | 73 kts | 282° |
| 2026-05-04 05:39 | 32.36561 | -64.68751 | 16 ft | 33 kts | 280° |
| 2026-05-04 05:39 | 32.36635 | -64.69044 | 11 ft | 0 kts | 355° |
| 2026-05-04 05:39 | 32.36650 | -64.69041 | 12 ft | 0 kts | 9° |
| 2026-05-04 05:40 | 32.36692 | -64.68959 | 12 ft | 18 kts | 63° |
| 2026-05-04 05:40 | 32.36700 | -64.68795 | 12 ft | 22 kts | 98° |
| 2026-05-04 05:40 | 32.36692 | -64.68708 | 12 ft | 2 kts | 72° |
| 2026-05-04 05:41 | 32.36719 | -64.68677 | 13 ft | 7 kts | 29° |
| 2026-05-04 05:41 | 32.36774 | -64.68651 | 12 ft | 8 kts | 12° |
| 2026-05-04 05:41 | 32.36831 | -64.68642 | 12 ft | 8 kts | 7° |
| 2026-05-04 05:41 | 32.36835 | -64.68642 | 12 ft | 0 kts | 7° |